North Potrero (448) Station Data

Red Flag Warning: No
Fire Weather Zone: 250
SDGE Region: Mountain Empire
Lat/Lon: 32.63/-116.585

Observations

Time Wind Speed/Gust Temp(F) RH Fuel Moist Fuel Temp(F) Dewpt(F) Tmax(F) Tmin(F) Accum Precip 10-min Precip SL Press(mb)
5/24 8:20am 6 5 G 7 70° 41% - - 45° 71° 59.8° - - -
5/24 8:10am 1 4 G 5 68° 47% - - 47° 68.7° 59.8° - - -
5/24 8:00am 1 4 G 5 67° 45% - - 45° 67.9° 59.8° - - -
5/24 7:50am 35 3 G 4 65° 49% - - 46° 67.9° 59.8° - - -
5/24 7:40am 0 2 G 4 63° 54% - - 47° 67.9° 59.8° - - -
5/24 7:30am 339 4 G 5 62° 58% - - 47° 67.9° 59.8° - - -
5/24 7:20am 14 3 G 4 63° 57% - - 47° 67.9° 59.8° - - -
5/24 7:10am 181 2 G 5 63° 50% - - 44° 67.9° 59.8° - - -
5/24 7:00am 182 5 G 7 63° 46% - - 42° 67.9° 59.8° - - -
5/24 6:50am 177 6 G 8 62° 44% - - 39° 67.9° 59.8° - - -
5/24 6:40am 189 6 G 8 62° 40% - - 38° 67.9° 59.8° - - -
5/24 6:30am 238 1 G 3 61° 42% - - 38° 67.9° 59.8° - - -
5/24 6:20am 0 3 G 4 62° 41% - - 38° 67.9° 59.8° - - -
5/24 6:10am 343 3 G 4 63° 39% - - 38° 67.9° 59.8° - - -
5/24 6:00am 10 5 G 5 61° 44% - - 39° 67.9° 59.8° - - -
5/24 5:50am 345 4 G 5 61° 46% - - 40° 67.9° 59.9° - - -
5/24 5:40am 357 5 G 6 61° 48% - - 41° 67.9° 59.9° - - -
5/24 5:30am 354 5 G 6 62° 49% - - 42° 67.9° 59.9° - - -
5/24 5:20am 347 4 G 5 62° 47% - - 41° 67.9° 59.9° - - -
5/24 5:10am 4 3 G 4 62° 47% - - 42° 67.9° 59.9° - - -
5/24 5:00am 4 4 G 5 64° 46% - - 43° 67.9° 59.9° - - -
5/24 4:50am 14 5 G 6 63° 49% - - 44° 67.9° 59.9° - - -
5/24 4:40am 11 4 G 6 62° 53% - - 45° 67.9° 59.9° - - -
5/24 4:30am 9 3 G 4 61° 58% - - 46° 67.9° 59.9° - - -
5/24 4:20am 18 3 G 4 62° 56% - - 46° 67.9° 59.9° - - -
5/24 4:10am 12 2 G 3 61° 59% - - 46° 67.9° 59.9° - - -
5/24 4:00am 13 2 G 4 61° 60% - - 47° 67.9° 59.9° - - -
5/24 3:50am 28 2 G 4 61° 59% - - 46° 67.9° 59.9° - - -
5/24 3:40am 17 3 G 4 62° 56% - - 46° 67.9° 60.2° - - -
5/24 3:30am 18 3 G 4 62° 55% - - 46° 67.9° 60.2° - - -
5/24 3:20am 1 2 G 3 61° 60% - - 47° 67.9° 60.2° - - -
5/24 3:10am 11 3 G 3 61° 59% - - 47° 67.9° 60.7° - - -
5/24 3:00am 303 0 G 1 61° 58% - - 47° 67.9° 60.8° - - -
5/24 2:50am 252 0 G 1 62° 54% - - 45° 67.9° 60.8° - - -
5/24 2:40am 118 2 G 4 64° 49% - - 45° 67.9° 60.8° - - -
5/24 2:30am 122 3 G 4 64° 52% - - 46° 67.9° 60.8° - - -
5/24 2:20am 85 2 G 2 63° 57% - - 48° 67.9° 60.8° - - -
5/24 2:10am 356 3 G 4 64° 55% - - 47° 67.9° 60.8° - - -
5/24 2:00am 29 3 G 4 63° 57% - - 48° 67.9° 60.8° - - -
5/24 1:50am 51 2 G 3 63° 64% - - 50° 67.9° 60.8° - - -
5/24 1:40am 16 2 G 3 62° 67% - - 51° 67.9° 60.8° - - -
5/24 1:30am 336 2 G 3 63° 63% - - 51° 67.9° 60.8° - - -
5/24 1:20am 6 2 G 3 63° 62% - - 50° 67.9° 60.8° - - -
5/24 1:10am 14 2 G 4 66° 57% - - 50° 67.9° 60.8° - - -
5/24 1:00am 34 3 G 4 65° 59% - - 51° 67.5° 60.8° - - -
5/24 12:50am 9 3 G 4 64° 64% - - 52° 64.7° 60.8° - - -
5/24 12:40am 8 3 G 4 64° 65% - - 52° 64.5° 60.8° - - -
5/24 12:30am 358 4 G 5 63° 66% - - 51° 64.3° 60.8° - - -
5/24 12:20am 12 4 G 5 62° 71% - - 53° 62.8° 60.8° - - -
5/24 12:10am 2 3 G 4 62° 73% - - 53° 62.8° 60.8° - - -
5/24 12:00am 5 2 G 2 64° 65% - - 52° 91° 60° - - -
5/23 11:50pm 111 2 G 4 66° 63% - - 53° 91° 60° - - -
5/23 11:40pm 86 2 G 3 64° 66% - - 53° 91° 60° - - -
5/23 11:30pm 348 0 G 2 64° 67% - - 53° 91° 60° - - -
5/23 11:20pm 42 1 G 2 64° 67% - - 53° 91° 60° - - -
5/23 11:10pm 16 1 G 2 64° 69% - - 53° 91° 60° - - -
5/23 11:00pm 358 2 G 3 65° 67% - - 54° 91° 60° - - -
5/23 10:50pm 352 2 G 2 65° 66% - - 54° 91° 60° - - -
5/23 10:40pm 19 1 G 3 67° 62% - - 54° 91° 60° - - -
5/23 10:30pm 133 1 G 3 67° 63% - - 54° 91° 60° - - -
5/23 10:20pm 191 2 G 4 67° 63% - - 54° 91° 60° - - -
5/23 10:10pm 15 2 G 4 67° 63% - - 54° 91° 60° - - -
5/23 10:00pm 8 3 G 4 66° 65% - - 54° 91° 60° - - -
5/23 9:50pm 345 4 G 4 66° 64% - - 54° 91° 60° - - -
5/23 9:40pm 352 2 G 3 68° 63% - - 54° 91° 60° - - -
5/23 9:30pm 359 2 G 4 67° 64% - - 54° 91° 60° - - -
5/23 9:20pm 49 3 G 4 68° 62% - - 54° 91° 60° - - -
5/23 9:10pm 121 3 G 4 69° 61% - - 54° 91° 60° - - -
5/23 9:00pm 142 3 G 4 69° 61% - - 54° 91° 60° - - -
5/23 8:50pm 150 4 G 5 69° 59% - - 54° 91° 60° - - -
5/23 8:40pm 147 4 G 5 70° 58% - - 54° 91° 60° - - -
5/23 8:30pm 175 5 G 7 70° 57% - - 54° 91° 60° - - -
5/23 8:20pm 185 5 G 6 71° 56% - - 54° 91° 60° - - -
5/23 8:10pm 219 3 G 6 73° 52% - - 55° 91° 60° - - -
5/23 8:00pm 287 1 G 2 74° 50% - - 54° 91° 60° - - -
5/23 7:50pm 31 1 G 2 74° 50% - - 54° 91° 60° - - -
5/23 7:40pm 307 0 G 1 75° 49% - - 54° 91° 60° - - -
5/23 7:30pm 133 2 G 3 75° 49% - - 55° 91° 60° - - -
5/23 7:20pm 163 2 G 3 75° 49% - - 55° 91° 60° - - -
5/23 7:10pm 199 4 G 7 76° 47% - - 54° 91° 60° - - -
5/23 7:00pm 217 5 G 7 78° 44% - - 54° 91° 60° - - -
5/23 6:50pm 207 6 G 8 78° 43% - - 54° 91° 60° - - -
5/23 6:40pm 192 6 G 9 78° 42% - - 53° 91° 60° - - -
5/23 6:30pm 195 8 G 10 78° 41% - - 53° 91° 60° - - -
5/23 6:20pm 198 10 G 14 79° 41% - - 53° 91° 60° - - -
5/23 6:10pm 203 10 G 14 80° 40% - - 54° 91° 60° - - -
5/23 6:00pm 215 7 G 11 83° 34% - - 51° 91° 60° - - -
5/23 5:50pm 261 5 G 9 85° 27% - - 47° 91° 60° - - -
5/23 5:40pm 292 5 G 10 84° 28% - - 48° 91° 60° - - -
5/23 5:30pm 298 7 G 12 84° 28% - - 47° 91° 60° - - -
5/23 5:20pm 299 8 G 13 84° 29% - - 48° 91° 60° - - -
5/23 5:10pm 313 8 G 14 85° 29% - - 48° 91° 60° - - -
5/23 5:00pm 283 6 G 10 85° 27% - - 47° 91° 60° - - -
5/23 4:50pm 302 8 G 13 85° 25% - - 45° 91° 60° - - -
5/23 4:40pm 279 7 G 11 85° 25% - - 45° 91° 60° - - -
5/23 4:30pm 282 8 G 12 84° 26% - - 46° 91° 60° - - -
5/23 4:20pm 289 8 G 12 85° 27% - - 48° 91° 60° - - -
5/23 4:10pm 271 8 G 12 85° 31% - - 51° 91° 60° - - -
5/23 4:00pm 265 8 G 13 85° 32% - - 52° 91° 60° - - -
5/23 3:50pm 267 8 G 13 85° 31% - - 50° 91° 60° - - -
5/23 3:40pm 261 8 G 13 84° 32% - - 50° 91° 60° - - -
5/23 3:30pm 236 10 G 14 83° 35% - - 52° 91° 60° - - -
5/23 3:20pm 236 10 G 14 83° 37% - - 54° 91° 60° - - -
5/23 3:10pm 215 10 G 14 83° 38% - - 55° 91° 60° - - -
5/23 3:00pm 204 12 G 16 83° 38% - - 55° 91° 60° - - -
5/23 2:50pm 199 11 G 15 84° 38% - - 55° 91° 60° - - -
5/23 2:40pm 200 10 G 14 85° 37% - - 56° 91° 60° - - -
5/23 2:30pm 205 9 G 13 86° 35% - - 55° 91° 60° - - -
5/23 2:20pm 225 9 G 13 86° 35% - - 54° 91° 60° - - -
5/23 2:10pm 209 9 G 15 85° 35% - - 55° 91° 60° - - -
5/23 2:00pm 216 9 G 14 86° 34% - - 54° 91° 60° - - -
5/23 1:50pm 196 11 G 15 86° 32% - - 52° 91° 60° - - -
5/23 1:40pm 196 11 G 16 86° 28% - - 49° 91° 60° - - -
5/23 1:30pm 198 10 G 14 86° 30% - - 51° 91° 60° - - -
5/23 1:20pm 191 10 G 15 86° 30% - - 52° 91° 60° - - -
5/23 1:10pm 189 10 G 14 87° 30% - - 52° 91° 60° - - -
5/23 1:00pm 202 10 G 15 87° 29% - - 51° 91° 60° - - -
5/23 12:50pm 214 11 G 16 88° 27% - - 50° 91° 60° - - -
5/23 12:40pm 221 11 G 15 88° 25% - - 48° 91° 60° - - -
5/23 12:30pm 214 11 G 16 89° 20% - - 43° 91° 60° - - -
5/23 12:20pm 209 10 G 15 89° 20% - - 43° 91° 60° - - -
5/23 12:10pm 196 12 G 17 89° 20% - - 43° 91° 60° - - -
5/23 12:00pm 200 10 G 15 90° 19% - - 42° 91° 60° - - -
5/23 11:50am 207 10 G 14 90° 19% - - 41° 91° 60° - - -
5/23 11:40am 202 9 G 13 90° 17% - - 40° 91° 60° - - -
5/23 11:30am 218 7 G 11 90° 16% - - 39° 90.9° 60° - - -
5/23 11:20am 204 6 G 11 90° 16% - - 38° 90.7° 60° - - -
5/23 11:10am 208 5 G 10 90° 16% - - 37° 90.7° 60° - - -
5/23 11:00am 209 5 G 10 89° 17% - - 38° 89.9° 60° - - -
5/23 10:50am 215 3 G 6 88° 17% - - 39° 89.5° 60° - - -
5/23 10:40am 191 4 G 7 87° 19% - - 40° 88° 60° - - -
5/23 10:30am 171 2 G 6 87° 19% - - 40° 88° 60° - - -
5/23 10:20am 181 3 G 6 86° 21% - - 41° 86.5° 60° - - -
5/23 10:10am 216 2 G 5 85° 22% - - 42° 85.4° 60° - - -
5/23 10:00am 199 2 G 4 84° 22% - - 41° 85.2° 60° - - -
5/23 9:50am 108 1 G 2 83° 22% - - 40° 84.1° 60° - - -
5/23 9:40am 206 2 G 5 82° 23% - - 41° 83.2° 60° - - -
5/23 9:30am 251 2 G 5 81° 23% - - 40° 81.6° 60° - - -
5/23 9:20am 248 2 G 4 80° 23% - - 39° 81° 60° - - -
5/23 9:10am 239 2 G 5 80° 24% - - 39° 80.5° 60° - - -
5/23 9:00am 248 1 G 3 79° 25% - - 40° 79.6° 60° - - -
5/23 8:50am 254 1 G 4 78° 27% - - 41° 78.7° 60° - - -
5/23 8:40am 238 1 G 3 77° 29% - - 42° 77.5° 60° - - -
5/23 8:30am 342 2 G 3 75° 31% - - 42° 76.3° 60° - - -
5/23 8:20am 349 2 G 4 74° 33% - - 43° 74.9° 60° - - -
5/23 8:10am 340 1 G 2 72° 33% - - 42° 74° 60° - - -
5/23 8:00am 354 2 G 3 70° 34% - - 41° 71.1° 60° - - -
5/23 7:50am 357 2 G 3 69° 32% - - 38° 70.6° 60° - - -
5/23 7:40am 323 2 G 3 69° 39% - - 43° 70.6° 60° - - -
5/23 7:30am 241 1 G 2 70° 37% - - 42° 70.6° 60° - - -
5/23 7:20am 161 2 G 3 68° 35% - - 40° 69.4° 60° - - -
5/23 7:10am 139 3 G 3 67° 34% - - 38° 68.4° 60° - - -
5/23 7:00am 43 1 G 2 67° 30% - - 34° 67.6° 60° - - -
5/23 6:50am 83 1 G 2 66° 31% - - 35° 67.3° 60° - - -
5/23 6:40am 34 3 G 4 65° 32% - - 34° 66.9° 60° - - -
5/23 6:30am 9 3 G 4 65° 31% - - 34° 66.9° 60° - - -
5/23 6:20am 26 3 G 4 64° 32% - - 34° 66.9° 60° - - -
5/23 6:10am 12 2 G 3 63° 36% - - 35° 66.9° 60° - - -
5/23 6:00am 354 2 G 3 61° 39% - - 36° 66.9° 60° - - -